Terminal Aerodrome Forecast
Issued by NWS

Home | Current Version | Previous Version | Text Only | Print | Product List | Glossary On
Versions: 1 2 3 4 5 6 7 8 9 10 11 12 13 14 15 16 17 18 19 20 21
000
FTUS41 KBTV 301100
TAFPBG
TAF
KPBG 301120Z 3012/0112 VRB03KT P6SM OVC009
     FM301400 VRB03KT P6SM SCT080
     FM301700 36005KT P6SM SCT006 BKN015 OVC020=

USA.gov is the U.S. government's official web portal to all federal, state and local government web resources and services.